Time;durP1;ratioP1;P1;durP2;ratioP2;P2;SDS_P1;SDS_P2;PMS_P1;PMS_P2;Temp;Humidity;BMP_temperature;BMP_pressure;BME280_temperature;BME280_humidity;BME280_pressure;Samples;Min_cycle;Max_cycle;Signal;HPM_P1;HPM_P2
2024/03/19 00:00:54;;;;;;;2.20;0.90;;;;;;;4.99;65.04;99864.42;105370;1251;62452;-60
2024/03/19 00:03:22;;;;;;;2.90;0.50;;;;;;;5.06;64.80;99863.92;105380;1256;60479;-58
2024/03/19 00:05:49;;;;;;;3.10;1.30;;;;;;;5.13;64.92;99863.12;105500;1257;60526;-59
2024/03/19 00:08:17;;;;;;;3.90;1.40;;;;;;;5.19;64.98;99862.36;106474;1251;63615;-60
2024/03/19 00:10:45;;;;;;;2.60;0.80;;;;;;;5.22;64.95;99863.05;105399;1256;60686;-58
2024/03/19 00:13:12;;;;;;;4.20;1.10;;;;;;;5.22;64.72;99860.99;105550;1253;64131;-58
2024/03/19 00:15:42;;;;;;;3.40;0.70;;;;;;;5.21;64.72;99859.80;105363;1253;60558;-57
2024/03/19 00:18:10;;;;;;;3.10;0.90;;;;;;;5.15;64.52;99862.30;105805;1251;60734;-55
2024/03/19 00:20:37;;;;;;;3.50;0.90;;;;;;;5.05;64.41;99862.59;105502;1253;64969;-56
2024/03/19 00:23:05;;;;;;;2.60;1.00;;;;;;;4.99;64.40;99866.64;105436;1256;61372;-56
2024/03/19 00:25:32;;;;;;;3.80;0.90;;;;;;;4.93;64.56;99863.95;105800;1256;62416;-58
2024/03/19 00:27:59;;;;;;;2.40;0.80;;;;;;;4.92;64.90;99866.78;106060;1252;60450;-56
2024/03/19 00:30:27;;;;;;;2.90;0.90;;;;;;;4.96;64.93;99861.27;106021;1255;60344;-56
2024/03/19 00:32:55;;;;;;;2.70;0.80;;;;;;;5.06;64.92;99853.52;105393;1256;64978;-55
2024/03/19 00:35:22;;;;;;;2.70;0.70;;;;;;;5.16;64.75;99853.23;105567;1254;61403;-56
2024/03/19 00:37:50;;;;;;;2.20;0.60;;;;;;;5.23;64.57;99854.11;105498;1256;62727;-57
2024/03/19 00:40:18;;;;;;;2.80;0.60;;;;;;;5.28;64.48;99861.45;105301;1252;61318;-56
2024/03/19 00:42:45;;;;;;;3.70;1.10;;;;;;;5.37;64.56;99861.39;105453;1251;60472;-58
2024/03/19 00:45:13;;;;;;;2.10;0.50;;;;;;;5.46;64.56;99862.86;105364;1251;63653;-56
2024/03/19 00:47:40;;;;;;;2.60;0.80;;;;;;;5.54;64.40;99866.32;105779;1257;60588;-56
2024/03/19 00:50:09;;;;;;;2.50;0.70;;;;;;;5.58;64.57;99865.86;105740;1254;63735;-56
2024/03/19 00:52:36;;;;;;;3.00;0.90;;;;;;;5.62;64.43;99863.34;105676;1251;60516;-56
2024/03/19 00:55:04;;;;;;;3.00;1.20;;;;;;;5.63;64.22;99863.67;105409;1252;60578;-55
2024/03/19 00:57:32;;;;;;;4.40;1.00;;;;;;;5.62;64.08;99866.14;106814;1256;64852;-58
2024/03/19 01:00:00;;;;;;;3.40;0.80;;;;;;;5.61;64.13;99862.90;106068;1251;61377;-54
2024/03/19 01:02:27;;;;;;;3.10;1.10;;;;;;;5.57;64.06;99859.84;105370;1257;63795;-55
2024/03/19 01:04:54;;;;;;;3.70;1.10;;;;;;;5.54;64.03;99857.48;105208;1253;60379;-56
2024/03/19 01:07:22;;;;;;;2.80;0.80;;;;;;;5.51;64.09;99861.49;105384;1255;60750;-56
2024/03/19 01:09:50;;;;;;;4.10;1.20;;;;;;;5.46;64.07;99861.52;105450;1251;64888;-56
2024/03/19 01:12:17;;;;;;;2.90;0.90;;;;;;;5.41;64.02;99866.52;105555;1257;61637;-57
2024/03/19 01:14:45;;;;;;;2.70;0.50;;;;;;;5.43;63.73;99868.49;105419;1257;63725;-57
2024/03/19 01:17:13;;;;;;;3.30;0.70;;;;;;;5.46;63.64;99871.77;105373;1254;60651;-56
2024/03/19 01:19:40;;;;;;;2.70;0.80;;;;;;;5.50;63.67;99876.34;105405;1254;60424;-55
2024/03/19 01:22:09;;;;;;;1.40;0.30;;;;;;;5.54;63.76;99870.52;105756;1256;72575;-56
2024/03/19 01:24:37;;;;;;;1.70;0.40;;;;;;;5.61;63.84;99870.95;105375;1253;60558;-55
2024/03/19 01:27:05;;;;;;;3.00;1.40;;;;;;;5.71;63.93;99868.33;105666;1254;63667;-55
2024/03/19 01:29:33;;;;;;;1.50;0.50;;;;;;;5.81;64.00;99869.96;105367;1257;60552;-57
2024/03/19 01:32:00;;;;;;;2.50;0.60;;;;;;;5.85;63.81;99869.85;105912;1256;60363;-57
2024/03/19 01:34:28;;;;;;;2.10;0.50;;;;;;;5.85;63.76;99866.89;106052;1252;63670;-56
2024/03/19 01:36:55;;;;;;;2.50;0.50;;;;;;;5.84;63.84;99871.84;106050;1254;61606;-55
2024/03/19 01:39:23;;;;;;;1.80;0.40;;;;;;;5.81;63.58;99870.59;105336;1253;64282;-55
2024/03/19 01:41:54;;;;;;;2.20;0.50;;;;;;;5.79;63.52;99869.38;105574;1256;60535;-55
2024/03/19 01:44:21;;;;;;;1.30;0.30;;;;;;;5.75;63.46;99866.69;106201;1253;60295;-55
2024/03/19 01:46:49;;;;;;;1.50;0.40;;;;;;;5.70;63.47;99867.05;105405;1257;67347;-56
2024/03/19 01:49:18;;;;;;;2.40;0.50;;;;;;;5.65;63.38;99869.10;105655;1256;60579;-57
2024/03/19 01:51:45;;;;;;;1.50;0.30;;;;;;;5.59;63.32;99872.59;105359;1254;63733;-56
2024/03/19 01:54:13;;;;;;;1.60;0.50;;;;;;;5.53;63.43;99872.52;105421;1254;61255;-57
2024/03/19 01:56:40;;;;;;;1.60;0.30;;;;;;;5.53;63.26;99874.42;105220;1259;60350;-57
2024/03/19 01:59:08;;;;;;;2.20;0.70;;;;;;;5.57;63.18;99875.34;105812;1254;64943;-57
2024/03/19 02:01:35;;;;;;;1.80;0.40;;;;;;;5.62;63.10;99871.92;105717;1255;61413;-56
2024/03/19 02:04:03;;;;;;;1.30;0.20;;;;;;;5.66;63.12;99874.73;105529;1254;64407;-57
2024/03/19 02:06:31;;;;;;;2.60;0.50;;;;;;;5.71;63.07;99879.48;105345;1257;60962;-56
2024/03/19 02:09:00;;;;;;;1.90;0.50;;;;;;;5.79;63.26;99879.98;105508;1252;60469;-57
2024/03/19 02:11:27;;;;;;;2.10;0.70;;;;;;;5.85;63.29;99881.83;106879;1251;64904;-59
2024/03/19 02:13:55;;;;;;;4.40;1.40;;;;;;;5.86;63.06;99883.49;105415;1256;60565;-59
2024/03/19 02:16:23;;;;;;;4.20;1.70;;;;;;;5.83;63.08;99886.84;105982;1254;63668;-58
2024/03/19 02:19:08;;;;;;;5.00;2.00;;;;;;;5.79;62.91;99892.36;105440;1252;60535;-58
2024/03/19 02:21:36;;;;;;;3.60;1.10;;;;;;;5.72;62.95;99895.59;106713;1254;59379;-58
2024/03/19 02:24:04;;;;;;;3.10;0.50;;;;;;;5.66;63.11;99893.70;105482;1251;65067;-58
2024/03/19 02:26:31;;;;;;;3.10;0.80;;;;;;;5.63;63.04;99894.79;105412;1257;61895;-57
2024/03/19 02:29:00;;;;;;;4.30;0.70;;;;;;;5.61;63.11;99895.45;106129;1253;63688;-58
2024/03/19 02:31:28;;;;;;;2.80;0.50;;;;;;;5.59;63.23;99895.07;105981;1254;60523;-57
2024/03/19 02:33:55;;;;;;;1.70;0.50;;;;;;;5.59;63.11;99894.16;106111;1257;60482;-57
2024/03/19 02:36:23;;;;;;;2.30;0.60;;;;;;;5.61;62.93;99893.89;105396;1252;64890;-57
2024/03/19 02:38:51;;;;;;;3.10;0.50;;;;;;;5.62;62.86;99898.34;105624;1256;61556;-57
2024/03/19 02:41:19;;;;;;;1.70;0.40;;;;;;;5.65;62.80;99899.73;105380;1251;62458;-57
2024/03/19 02:43:47;;;;;;;1.70;0.50;;;;;;;5.68;62.66;99901.08;105554;1253;60571;-56
2024/03/19 02:46:14;;;;;;;1.20;0.30;;;;;;;5.72;62.79;99904.80;105512;1257;60479;-57
2024/03/19 02:48:41;;;;;;;1.90;0.40;;;;;;;5.75;62.94;99902.64;105831;1251;64999;-57
2024/03/19 02:51:09;;;;;;;1.40;0.30;;;;;;;5.80;63.09;99907.42;105429;1256;60386;-56
2024/03/19 02:53:36;;;;;;;2.60;1.20;;;;;;;5.84;63.19;99907.48;105208;1258;72745;-56
2024/03/19 02:56:04;;;;;;;3.70;1.10;;;;;;;5.85;62.98;99915.61;105577;1257;60523;-59
2024/03/19 02:58:33;;;;;;;1.20;0.20;;;;;;;5.79;62.78;99923.11;105851;1251;60385;-57
2024/03/19 03:01:01;;;;;;;2.20;0.40;;;;;;;5.73;62.80;99926.46;105847;1252;63636;-58
2024/03/19 03:03:28;;;;;;;1.20;0.30;;;;;;;5.68;62.64;99929.08;105289;1254;61747;-61
2024/03/19 03:05:56;;;;;;;1.90;0.50;;;;;;;5.64;62.65;99931.80;105293;1254;63356;-56
2024/03/19 03:08:23;;;;;;;1.20;0.40;;;;;;;5.60;62.80;99931.34;105460;1254;60558;-57
2024/03/19 03:10:51;;;;;;;2.10;0.30;;;;;;;5.56;62.79;99932.64;105515;1257;60456;-57
2024/03/19 03:13:18;;;;;;;1.40;0.40;;;;;;;5.54;62.91;99933.34;105480;1256;63637;-56
2024/03/19 03:15:46;;;;;;;1.80;0.30;;;;;;;5.53;62.80;99937.54;105449;1255;61583;-56
2024/03/19 03:18:13;;;;;;;1.80;0.40;;;;;;;5.58;62.84;99937.42;105438;1257;62454;-56
2024/03/19 03:20:41;;;;;;;1.60;0.40;;;;;;;5.61;62.54;99938.30;105453;1257;60878;-57
2024/03/19 03:23:09;;;;;;;1.70;0.30;;;;;;;5.62;62.61;99941.48;105737;1252;60542;-58
2024/03/19 03:25:38;;;;;;;1.30;0.30;;;;;;;5.68;62.84;99942.33;105218;1257;63628;-58
2024/03/19 03:28:05;;;;;;;1.90;0.70;;;;;;;5.75;62.85;99948.46;105891;1256;60504;-58
2024/03/19 03:30:32;;;;;;;1.70;0.50;;;;;;;5.79;62.94;99951.84;105303;1254;63835;-58
2024/03/19 03:33:00;;;;;;;1.20;0.40;;;;;;;5.82;62.99;99956.05;105785;1253;60456;-56
2024/03/19 03:35:27;;;;;;;1.20;0.20;;;;;;;5.80;62.88;99962.62;105919;1254;60520;-57
2024/03/19 03:37:55;;;;;;;1.10;0.30;;;;;;;5.73;62.77;99964.42;105486;1251;63731;-57
2024/03/19 03:40:24;;;;;;;1.60;0.30;;;;;;;5.65;62.77;99968.58;105245;1257;61361;-56
2024/03/19 03:42:51;;;;;;;1.70;0.60;;;;;;;5.59;62.71;99972.67;106953;1254;71736;-58
2024/03/19 03:45:26;;;;;;;1.80;0.40;;;;;;;5.56;62.94;99975.13;105368;1254;61413;-57
2024/03/19 03:47:54;;;;;;;2.00;0.90;;;;;;;5.51;63.05;99979.79;105395;1257;61343;-60
2024/03/19 03:50:21;;;;;;;1.40;0.30;;;;;;;5.46;62.95;99985.02;108587;1251;64502;-56
2024/03/19 03:52:49;;;;;;;2.30;0.50;;;;;;;5.40;63.09;99986.02;105450;1257;63588;-57
2024/03/19 03:55:16;;;;;;;1.90;0.40;;;;;;;5.35;63.14;99990.21;105555;1255;63765;-56
2024/03/19 03:57:45;;;;;;;3.20;0.70;;;;;;;5.36;63.16;99993.81;105510;1257;61470;-56
2024/03/19 04:00:13;;;;;;;2.00;0.40;;;;;;;5.43;63.27;99995.80;105375;1251;61179;-55
2024/03/19 04:02:42;;;;;;;1.60;0.40;;;;;;;5.53;63.29;100003.31;105366;1251;64456;-56
2024/03/19 04:05:10;;;;;;;1.70;0.50;;;;;;;5.64;63.37;100008.38;105671;1257;61390;-54
2024/03/19 04:07:41;;;;;;;4.00;0.90;;;;;;;5.69;63.34;100010.45;105348;1257;64364;-55
2024/03/19 04:10:11;;;;;;;1.60;0.50;;;;;;;5.79;63.16;100015.09;107484;1255;61349;-55
2024/03/19 04:12:38;;;;;;;4.30;0.60;;;;;;;5.86;63.33;100024.18;106015;1257;61208;-56
2024/03/19 04:15:07;;;;;;;1.80;0.50;;;;;;;5.89;63.34;100024.16;105424;1252;65883;-51
2024/03/19 04:17:34;;;;;;;2.20;0.50;;;;;;;5.92;63.18;100027.27;106135;1256;61298;-57
2024/03/19 04:20:05;;;;;;;2.30;0.70;;;;;;;5.92;63.03;100031.27;107544;1251;63857;-56
2024/03/19 04:22:35;;;;;;;1.40;0.40;;;;;;;5.88;62.97;100036.38;105469;1256;61365;-55
2024/03/19 04:25:03;;;;;;;2.10;0.60;;;;;;;5.83;62.77;100042.66;105485;1251;61358;-56
2024/03/19 04:27:31;;;;;;;2.10;0.50;;;;;;;5.77;62.77;100046.84;105932;1252;65714;-62
2024/03/19 04:29:58;;;;;;;2.10;0.50;;;;;;;5.71;62.88;100050.89;106152;1251;61391;-62
2024/03/19 04:32:26;;;;;;;2.20;0.30;;;;;;;5.66;62.96;100052.95;105393;1255;63694;-61
2024/03/19 04:34:53;;;;;;;1.10;0.20;;;;;;;5.68;63.01;100059.64;105438;1254;61342;-62
2024/03/19 04:37:21;;;;;;;2.60;0.80;;;;;;;5.72;62.90;100065.09;105363;1257;61527;-61
2024/03/19 04:39:48;;;;;;;2.50;0.60;;;;;;;5.75;62.81;100071.64;105267;1251;64405;-61
2024/03/19 04:42:19;;;;;;;2.80;0.60;;;;;;;5.82;62.86;100076.96;105477;1257;61286;-60
2024/03/19 04:44:47;;;;;;;4.60;0.80;;;;;;;5.87;62.81;100082.38;105315;1251;64037;-61
2024/03/19 04:47:17;;;;;;;1.90;0.40;;;;;;;5.90;62.67;100085.00;105217;1252;61255;-60
2024/03/19 04:49:44;;;;;;;5.00;0.80;;;;;;;5.92;62.80;100090.11;105441;1251;61415;-60
2024/03/19 04:52:15;;;;;;;4.80;1.50;;;;;;;5.93;62.91;100091.40;105593;1252;66698;-60
2024/03/19 04:54:43;;;;;;;2.90;0.80;;;;;;;5.95;62.95;100093.04;105470;1255;62050;-60
2024/03/19 04:57:11;;;;;;;2.20;0.70;;;;;;;5.95;62.81;100094.43;105337;1257;71470;-62
2024/03/19 04:59:38;;;;;;;2.70;0.50;;;;;;;5.94;62.66;100100.73;105505;1256;61349;-62
2024/03/19 05:02:06;;;;;;;2.00;0.60;;;;;;;5.92;62.67;100101.20;105499;1255;61093;-63
2024/03/19 05:04:45;;;;;;;1.90;0.40;;;;;;;5.88;62.62;100103.95;105563;1251;64726;-60
2024/03/19 05:07:13;;;;;;;2.50;0.90;;;;;;;5.82;62.57;100111.80;105484;1252;61410;-56
2024/03/19 05:09:41;;;;;;;1.60;0.30;;;;;;;5.80;62.60;100113.15;105879;1256;64323;-60
2024/03/19 05:12:09;;;;;;;1.80;0.40;;;;;;;5.83;62.50;100115.92;105643;1257;61455;-58
2024/03/19 05:14:37;;;;;;;2.20;0.60;;;;;;;5.89;62.67;100123.90;105420;1257;61253;-58
2024/03/19 05:17:04;;;;;;;2.10;0.40;;;;;;;5.97;62.77;100126.85;105333;1251;65724;-61
2024/03/19 05:19:32;;;;;;;2.70;0.70;;;;;;;6.04;62.61;100132.34;105746;1257;61486;-59
2024/03/19 05:22:00;;;;;;;2.60;0.70;;;;;;;6.08;62.63;100135.38;105406;1251;63690;-60
2024/03/19 05:24:30;;;;;;;1.60;0.50;;;;;;;6.10;62.49;100135.44;106855;1251;62266;-59
2024/03/19 05:26:57;;;;;;;2.30;0.50;;;;;;;6.09;62.42;100138.62;105277;1256;61640;-58
2024/03/19 05:29:25;;;;;;;2.30;0.60;;;;;;;6.07;62.50;100141.85;105374;1256;65716;-58
2024/03/19 05:31:52;;;;;;;2.00;0.50;;;;;;;6.05;62.48;100148.98;105458;1255;61415;-59
2024/03/19 05:34:20;;;;;;;2.80;0.80;;;;;;;6.01;62.34;100150.87;105351;1257;63852;-57
2024/03/19 05:36:47;;;;;;;2.40;0.70;;;;;;;5.95;62.42;100157.96;105182;1251;61236;-56
2024/03/19 05:39:15;;;;;;;3.90;0.90;;;;;;;5.89;62.36;100157.66;105263;1252;61397;-60
2024/03/19 05:41:42;;;;;;;8.70;2.00;;;;;;;5.88;62.54;100160.52;105177;1252;76212;-59
2024/03/19 05:44:10;;;;;;;2.70;0.70;;;;;;;5.96;62.51;100160.52;109330;1251;60105;-57
2024/03/19 05:46:37;;;;;;;1.80;0.50;;;;;;;6.05;62.60;100161.00;109275;1254;64335;-56
2024/03/19 05:49:05;;;;;;;3.80;1.50;;;;;;;6.14;62.49;100160.25;109322;1251;59568;-57
2024/03/19 05:51:33;;;;;;;3.80;0.70;;;;;;;6.24;62.45;100159.79;108434;1252;61368;-57
2024/03/19 05:54:01;;;;;;;2.80;0.80;;;;;;;6.30;62.51;100158.14;105970;1256;64453;-56
2024/03/19 05:56:31;;;;;;;2.40;0.80;;;;;;;6.36;62.47;100163.55;105376;1254;61971;-60
2024/03/19 05:59:00;;;;;;;3.10;1.10;;;;;;;6.40;62.38;100167.08;105398;1250;63824;-56
2024/03/19 06:01:29;;;;;;;2.50;0.80;;;;;;;6.42;62.46;100170.99;105446;1256;61312;-59
2024/03/19 06:04:01;;;;;;;2.90;1.40;;;;;;;6.40;62.21;100176.33;105414;1255;61193;-60
2024/03/19 06:06:34;;;;;;;;;;;;;;;6.36;61.96;100187.07;109310;1251;68056;-59
2024/03/19 06:09:02;;;;;;;2.70;0.80;;;;;;;6.35;62.05;100200.55;106813;1252;61846;-63
2024/03/19 06:11:31;;;;;;;2.90;1.00;;;;;;;6.36;62.37;100212.84;109160;1256;74886;-57
2024/03/19 06:13:58;;;;;;;3.30;0.50;;;;;;;6.38;62.41;100218.45;105510;1256;63594;-60
2024/03/19 06:16:26;;;;;;;2.70;0.70;;;;;;;6.44;62.21;100226.75;105437;1255;61154;-65
2024/03/19 06:18:53;;;;;;;3.90;0.70;;;;;;;6.54;61.87;100231.91;105335;1257;66220;-63
2024/03/19 06:21:21;;;;;;;3.40;0.70;;;;;;;6.59;61.62;100243.42;108680;1256;60098;-60
2024/03/19 06:23:53;;;;;;;3.70;0.70;;;;;;;6.65;61.58;100245.45;105347;1257;63762;-63
2024/03/19 06:26:25;;;;;;;;;;;;;;;6.70;61.44;100242.69;106198;1257;61339;-62
2024/03/19 06:28:53;;;;;;;3.50;1.10;;;;;;;6.70;61.50;100248.61;105568;1250;61476;-60
2024/03/19 06:31:21;;;;;;;4.20;1.20;;;;;;;6.66;61.26;100254.06;107966;1255;74854;-62
2024/03/19 06:33:48;;;;;;;3.20;1.00;;;;;;;6.63;61.15;100256.05;105455;1255;61413;-63
2024/03/19 06:36:16;;;;;;;3.10;0.90;;;;;;;6.59;61.28;100258.57;105429;1257;63651;-61
2024/03/19 06:38:43;;;;;;;3.90;1.30;;;;;;;6.56;61.29;100266.27;106236;1257;61352;-61
2024/03/19 06:41:11;;;;;;;3.10;1.10;;;;;;;6.55;61.47;100271.03;105874;1254;61412;-71
2024/03/19 06:43:40;;;;;;;2.50;0.80;;;;;;;6.59;61.36;100278.98;106344;1257;65704;-69
2024/03/19 06:46:12;;;;;;;3.30;1.00;;;;;;;6.64;61.26;100282.98;106628;1256;70493;-73
2024/03/19 06:48:45;;;;;;;2.00;0.60;;;;;;;6.68;61.23;100288.45;106359;1256;62432;-67
2024/03/19 06:51:13;;;;;;;3.60;0.80;;;;;;;6.76;61.38;100290.10;105746;1256;63905;-64
2024/03/19 06:53:43;;;;;;;4.00;1.00;;;;;;;6.84;61.55;100295.81;106189;1251;61260;-71
2024/03/19 06:56:11;;;;;;;12.90;3.40;;;;;;;6.92;61.58;100298.05;106289;1254;66657;-66
2024/03/19 06:58:43;;;;;;;3.90;1.60;;;;;;;6.98;61.59;100303.27;106398;1254;61122;-63
2024/03/19 07:01:10;;;;;;;6.00;1.60;;;;;;;7.01;61.61;100305.83;106308;1251;62716;-67
2024/03/19 07:03:39;;;;;;;3.70;1.10;;;;;;;7.03;61.32;100306.26;105682;1250;61314;-63
2024/03/19 07:06:07;;;;;;;6.70;1.70;;;;;;;7.00;61.15;100312.21;106371;1250;61179;-65
2024/03/19 07:08:35;;;;;;;3.50;1.20;;;;;;;6.97;61.06;100315.34;106382;1251;66184;-64
2024/03/19 07:11:03;;;;;;;5.70;1.50;;;;;;;6.97;60.95;100317.25;106516;1254;61173;-63
2024/03/19 07:13:31;;;;;;;4.60;1.50;;;;;;;6.98;61.08;100320.20;106199;1256;73628;-63
2024/03/19 07:15:58;;;;;;;5.90;1.80;;;;;;;6.98;61.17;100326.14;106366;1253;61323;-65
2024/03/19 07:18:26;;;;;;;5.10;1.80;;;;;;;6.93;60.99;100329.27;106300;1256;61212;-63
2024/03/19 07:20:55;;;;;;;5.90;1.90;;;;;;;6.92;60.89;100333.48;106238;1256;66531;-64
2024/03/19 07:23:23;;;;;;;8.00;3.70;;;;;;;6.98;60.85;100334.28;106346;1251;72287;-62
2024/03/19 07:25:50;;;;;;;2.80;1.00;;;;;;;7.04;60.89;100332.14;106666;1257;64028;-72
2024/03/19 07:28:20;;;;;;;9.30;2.60;;;;;;;7.12;60.72;100329.93;106378;1251;61308;-63
2024/03/19 07:30:48;;;;;;;8.50;4.80;;;;;;;7.16;60.60;100329.96;106457;1251;59310;-67
2024/03/19 07:33:16;;;;;;;5.40;2.20;;;;;;;7.21;60.88;100330.54;106193;1257;66255;-59
2024/03/19 07:35:44;;;;;;;6.00;2.50;;;;;;;7.23;60.78;100331.91;105404;1256;68935;-60
2024/03/19 07:38:11;;;;;;;4.10;1.50;;;;;;;7.28;60.83;100329.75;105570;1266;65993;-61
2024/03/19 07:40:40;;;;;;;5.00;1.50;;;;;;;7.32;60.58;100334.65;105421;1254;61394;-59
2024/03/19 07:43:08;;;;;;;6.40;4.10;;;;;;;7.37;60.76;100330.36;105860;1251;61243;-73
2024/03/19 07:45:36;;;;;;;6.50;2.10;;;;;;;7.40;60.62;100327.49;106291;1254;77203;-68
2024/03/19 07:48:05;;;;;;;6.20;2.20;;;;;;;7.40;60.33;100332.71;105863;1257;61306;-61
2024/03/19 07:50:34;;;;;;;7.00;2.50;;;;;;;7.41;60.00;100336.88;106232;1256;62546;-58
2024/03/19 07:53:01;;;;;;;15.20;4.40;;;;;;;7.42;59.73;100341.14;105597;1256;61272;-62
2024/03/19 07:55:29;;;;;;;5.30;1.90;;;;;;;7.43;59.27;100345.96;105454;1251;61349;-60
2024/03/19 07:57:57;;;;;;;6.40;2.00;;;;;;;7.51;59.10;100348.90;106302;1260;65862;-67
2024/03/19 08:00:25;;;;;;;4.30;1.60;;;;;;;7.62;59.00;100356.06;106394;1256;70426;-60
2024/03/19 08:02:53;;;;;;;5.40;1.70;;;;;;;7.72;59.05;100355.04;105576;1257;62556;-58
2024/03/19 08:05:21;;;;;;;7.20;3.70;;;;;;;7.86;58.98;100362.61;106004;1255;61259;-59
2024/03/19 08:07:48;;;;;;;5.50;1.80;;;;;;;7.96;58.85;100368.04;105438;1254;61371;-59
2024/03/19 08:10:16;;;;;;;7.00;4.40;;;;;;;8.05;58.92;100367.41;105421;1257;66046;-60
2024/03/19 08:12:43;;;;;;;5.10;1.80;;;;;;;8.14;58.67;100367.12;105558;1257;61345;-63
2024/03/19 08:15:11;;;;;;;6.70;1.80;;;;;;;8.20;57.98;100371.60;105464;1257;64118;-58
2024/03/19 08:17:38;;;;;;;7.20;4.20;;;;;;;8.22;57.87;100371.85;105608;1255;61449;-61
2024/03/19 08:20:12;;;;;;;5.20;1.80;;;;;;;8.25;57.66;100373.05;105929;1255;61146;-62
2024/03/19 08:22:41;;;;;;;6.90;2.40;;;;;;;8.25;57.20;100379.14;106038;1255;66132;-61
2024/03/19 08:25:09;;;;;;;5.60;2.10;;;;;;;8.23;56.93;100381.52;105902;1251;65058;-60
2024/03/19 08:27:37;;;;;;;9.70;5.00;;;;;;;8.17;56.71;100383.52;105904;1258;64879;-61
2024/03/19 08:30:06;;;;;;;6.20;1.80;;;;;;;8.11;56.78;100388.66;105508;1254;61115;-60
2024/03/19 08:32:37;;;;;;;4.20;1.50;;;;;;;8.15;57.00;100390.70;106118;1251;61349;-60
2024/03/19 08:35:08;;;;;;;4.50;1.20;;;;;;;8.25;57.12;100393.83;106136;1257;66218;-62
2024/03/19 08:37:36;;;;;;;6.00;1.40;;;;;;;8.37;57.22;100396.62;106625;1257;61224;-65
2024/03/19 08:40:06;;;;;;;7.80;3.60;;;;;;;8.48;57.21;100400.42;106598;1256;66398;-61
2024/03/19 08:42:34;;;;;;;3.50;1.20;;;;;;;8.54;56.76;100401.95;106317;1256;62216;-66
2024/03/19 08:45:05;;;;;;;2.90;0.90;;;;;;;8.55;56.64;100403.77;106393;1254;62216;-61
2024/03/19 08:47:33;;;;;;;6.80;3.40;;;;;;;8.59;56.58;100407.17;106447;1251;65043;-64
2024/03/19 08:50:00;;;;;;;5.40;1.40;;;;;;;8.62;56.45;100406.62;105836;1257;61245;-72
2024/03/19 08:52:28;;;;;;;4.00;1.40;;;;;;;8.65;56.45;100414.10;106614;1251;66060;-66
2024/03/19 08:54:56;;;;;;;6.90;3.20;;;;;;;8.68;56.46;100422.80;106843;1254;61629;-66
2024/03/19 08:57:28;;;;;;;4.20;1.20;;;;;;;8.69;56.28;100423.05;106396;1251;61303;-65
2024/03/19 09:00:00;;;;;;;5.70;3.20;;;;;;;8.73;55.85;100429.42;106634;1257;75662;-64
2024/03/19 09:02:28;;;;;;;4.20;1.40;;;;;;;8.75;55.37;100428.62;106826;1254;72748;-61
2024/03/19 09:04:55;;;;;;;4.00;1.20;;;;;;;8.74;55.00;100433.04;105543;1254;62562;-59
2024/03/19 09:07:23;;;;;;;6.30;3.10;;;;;;;8.71;54.57;100435.17;106923;1251;61201;-64
2024/03/19 09:09:52;;;;;;;3.60;1.40;;;;;;;8.66;54.55;100435.35;106373;1251;61583;-62
2024/03/19 09:12:20;;;;;;;3.10;0.90;;;;;;;8.60;54.43;100436.49;105526;1254;66095;-64
2024/03/19 09:14:49;;;;;;;9.30;3.10;;;;;;;8.59;54.40;100438.16;105172;1254;62281;-60
2024/03/19 09:17:16;;;;;;;3.00;1.10;;;;;;;8.63;54.68;100439.77;105314;1254;72653;-62
2024/03/19 09:19:45;;;;;;;4.80;1.00;;;;;;;8.71;54.42;100442.85;105596;1251;61793;-60
2024/03/19 09:22:13;;;;;;;8.20;2.90;;;;;;;8.81;54.21;100445.69;105463;1257;61291;-57
2024/03/19 09:24:40;;;;;;;4.40;1.30;;;;;;;8.88;53.91;100447.59;105463;1251;68491;-59
2024/03/19 09:27:08;;;;;;;5.90;2.80;;;;;;;8.99;53.41;100447.15;105521;1255;71443;-58
2024/03/19 09:29:36;;;;;;;3.10;0.70;;;;;;;9.12;53.02;100450.77;105874;1257;62694;-59
2024/03/19 09:32:04;;;;;;;7.40;2.40;;;;;;;9.27;52.70;100450.60;105616;1251;61406;-58
2024/03/19 09:34:31;;;;;;;3.30;0.60;;;;;;;9.37;52.74;100455.45;106227;1257;62110;-61
2024/03/19 09:36:58;;;;;;;6.60;2.20;;;;;;;9.45;52.23;100456.90;105449;1257;76853;-60
2024/03/19 09:39:26;;;;;;;3.50;1.10;;;;;;;9.52;51.61;100457.13;105386;1253;72612;-67
2024/03/19 09:42:03;;;;;;;5.40;2.10;;;;;;;9.56;51.13;100456.17;105596;1251;64192;-61
2024/03/19 09:44:30;;;;;;;3.50;1.00;;;;;;;9.57;51.08;100458.86;105153;1257;61231;-59
2024/03/19 09:46:59;;;;;;;6.30;2.30;;;;;;;9.61;50.87;100459.11;106041;1251;61253;-62
2024/03/19 09:49:32;;;;;;;4.10;0.90;;;;;;;9.65;50.71;100462.09;106097;1251;66249;-59
2024/03/19 09:52:07;;;;;;;5.70;2.20;;;;;;;9.69;50.46;100467.46;105627;1254;61920;-66
2024/03/19 09:54:34;;;;;;;5.50;1.50;;;;;;;9.69;50.24;100466.19;105496;1252;73635;-59
2024/03/19 09:57:04;;;;;;;4.70;1.80;;;;;;;9.72;50.31;100464.61;105508;1254;61293;-62
2024/03/19 09:59:32;;;;;;;2.70;0.70;;;;;;;9.75;50.17;100465.39;105487;1251;61240;-61
2024/03/19 10:02:00;;;;;;;7.90;2.30;;;;;;;9.79;50.02;100463.34;106216;1249;65032;-62
2024/03/19 10:04:28;;;;;;;3.70;0.70;;;;;;;9.85;50.20;100464.16;106147;1254;61729;-56
2024/03/19 10:06:55;;;;;;;9.60;2.60;;;;;;;9.95;49.99;100469.04;105550;1254;62576;-58
2024/03/19 10:09:30;;;;;;;5.70;2.00;;;;;;;10.03;49.59;100474.02;105469;1257;61365;-60
2024/03/19 10:11:57;;;;;;;6.30;2.50;;;;;;;10.11;49.85;100474.91;105576;1251;61293;-60
2024/03/19 10:14:25;;;;;;;4.70;1.30;;;;;;;10.21;49.29;100474.16;106192;1251;64573;-56
2024/03/19 10:16:52;;;;;;;6.70;2.40;;;;;;;10.29;48.99;100478.16;105720;1255;71372;-61
2024/03/19 10:19:19;;;;;;;3.50;1.00;;;;;;;10.35;48.70;100479.48;105472;1251;63898;-59
2024/03/19 10:21:47;;;;;;;6.40;3.70;;;;;;;10.39;48.12;100482.31;105665;1264;61335;-58
2024/03/19 10:24:16;;;;;;;15.10;2.40;;;;;;;10.41;47.93;100480.17;105483;1251;61177;-59
2024/03/19 10:26:44;;;;;;;6.30;2.80;;;;;;;10.42;47.70;100481.88;105717;1251;66117;-58
2024/03/19 10:29:12;;;;;;;4.20;1.10;;;;;;;10.43;47.93;100486.56;105518;1255;61276;-57
2024/03/19 10:31:41;;;;;;;7.80;2.80;;;;;;;10.46;48.03;100482.63;106037;1251;75329;-57
2024/03/19 10:34:17;;;;;;;7.00;2.60;;;;;;;10.49;48.01;100486.62;105824;1251;61360;-58
2024/03/19 10:36:47;;;;;;;4.60;1.30;;;;;;;10.58;48.28;100492.08;105657;1251;61215;-57
2024/03/19 10:39:19;;;;;;;9.00;3.10;;;;;;;10.65;47.90;100496.98;105583;1254;64940;-56
2024/03/19 10:41:55;;;;;;;4.30;1.80;;;;;;;10.72;47.82;100499.90;105531;1254;61223;-56
2024/03/19 10:44:23;;;;;;;8.70;2.80;;;;;;;10.81;47.19;100497.13;105343;1255;75221;-58
2024/03/19 10:46:50;;;;;;;19.40;4.60;;;;;;;10.83;46.84;100498.54;105129;1251;61321;-57
2024/03/19 10:49:21;;;;;;;7.10;2.20;;;;;;;10.86;46.98;100504.27;105051;1256;61089;-57
2024/03/19 10:51:51;;;;;;;8.00;3.60;;;;;;;10.91;46.91;100507.90;109370;1251;68464;-58
2024/03/19 10:54:33;;;;;;;11.80;2.40;;;;;;;10.95;46.72;100507.35;109344;1250;60316;-57
2024/03/19 10:57:00;;;;;;;6.10;2.30;;;;;;;10.97;46.69;100508.61;109302;1253;65987;-57
2024/03/19 10:59:38;;;;;;;4.70;2.10;;;;;;;10.99;46.36;100510.77;106165;1254;61368;-57
2024/03/19 11:02:06;;;;;;;4.70;1.30;;;;;;;10.97;46.48;100512.80;109371;1250;62515;-57
2024/03/19 11:04:35;;;;;;;7.30;2.80;;;;;;;11.00;46.17;100513.35;106675;1252;66143;-57
2024/03/19 11:07:03;;;;;;;7.50;2.90;;;;;;;10.98;46.04;100514.86;105293;1253;61234;-58
2024/03/19 11:09:31;;;;;;;8.40;2.60;;;;;;;10.96;45.90;100513.77;106634;1254;64729;-58
2024/03/19 11:12:02;;;;;;;7.20;1.70;;;;;;;10.95;45.82;100515.23;105420;1251;61225;-56
2024/03/19 11:14:32;;;;;;;8.10;3.00;;;;;;;10.97;46.11;100511.77;105339;1251;62056;-59
2024/03/19 11:17:03;;;;;;;7.50;2.80;;;;;;;11.03;46.16;100511.30;106940;1250;66776;-57
2024/03/19 11:19:31;;;;;;;5.40;2.40;;;;;;;11.13;46.06;100511.08;105417;1252;61835;-58
2024/03/19 11:21:59;;;;;;;6.00;2.30;;;;;;;11.24;45.93;100511.26;105449;1257;64332;-57
2024/03/19 11:24:37;;;;;;;7.10;2.60;;;;;;;11.30;45.60;100514.95;106083;1254;61323;-56
2024/03/19 11:27:07;;;;;;;4.60;0.80;;;;;;;11.32;45.56;100518.25;109282;1250;61195;-58
2024/03/19 11:29:37;;;;;;;4.90;2.40;;;;;;;11.34;45.55;100517.08;109366;1250;64588;-66
2024/03/19 11:32:08;;;;;;;8.10;2.80;;;;;;;11.36;45.28;100514.67;109430;1251;72647;-68